sensor_id;sensor_type;location;lat;lon;timestamp;pressure;altitude;pressure_sealevel;temperature;humidity
55289;BME280;41154;45.394;5.734;2023-04-07T00:01:03;97099.03;;;3.80;100.00
55289;BME280;41154;45.394;5.734;2023-04-07T00:03:29;97104.34;;;3.93;100.00
55289;BME280;41154;45.394;5.734;2023-04-07T00:05:55;97090.88;;;3.95;100.00
55289;BME280;41154;45.394;5.734;2023-04-07T00:08:20;97087.81;;;3.78;100.00
55289;BME280;41154;45.394;5.734;2023-04-07T00:10:46;97088.63;;;4.05;100.00
55289;BME280;41154;45.394;5.734;2023-04-07T00:13:12;97076.81;;;3.94;100.00
55289;BME280;41154;45.394;5.734;2023-04-07T00:15:37;97087.03;;;3.77;100.00
55289;BME280;41154;45.394;5.734;2023-04-07T00:18:03;97090.06;;;3.81;100.00
55289;BME280;41154;45.394;5.734;2023-04-07T00:20:29;97082.13;;;3.94;100.00
55289;BME280;41154;45.394;5.734;2023-04-07T00:22:54;97089.66;;;3.91;100.00
55289;BME280;41154;45.394;5.734;2023-04-07T00:25:20;97074.97;;;3.75;100.00
55289;BME280;41154;45.394;5.734;2023-04-07T00:27:46;97081.50;;;3.66;100.00
55289;BME280;41154;45.394;5.734;2023-04-07T00:30:12;97075.38;;;3.38;100.00
55289;BME280;41154;45.394;5.734;2023-04-07T00:32:39;97075.78;;;3.42;100.00
55289;BME280;41154;45.394;5.734;2023-04-07T00:35:05;97065.56;;;3.32;100.00
55289;BME280;41154;45.394;5.734;2023-04-07T00:37:31;97056.97;;;3.30;100.00
55289;BME280;41154;45.394;5.734;2023-04-07T00:39:57;97048.22;;;3.23;100.00
55289;BME280;41154;45.394;5.734;2023-04-07T00:42:23;97042.50;;;3.19;100.00
55289;BME280;41154;45.394;5.734;2023-04-07T00:44:49;97026.44;;;3.68;100.00
55289;BME280;41154;45.394;5.734;2023-04-07T00:47:15;97026.00;;;3.64;100.00
55289;BME280;41154;45.394;5.734;2023-04-07T00:49:41;97025.41;;;3.62;100.00
55289;BME280;41154;45.394;5.734;2023-04-07T00:52:08;97036.22;;;3.60;100.00
55289;BME280;41154;45.394;5.734;2023-04-07T00:54:37;97037.44;;;3.65;100.00
55289;BME280;41154;45.394;5.734;2023-04-07T00:57:03;97046.41;;;3.37;100.00
55289;BME280;41154;45.394;5.734;2023-04-07T00:59:29;97048.44;;;3.21;100.00
55289;BME280;41154;45.394;5.734;2023-04-07T01:04:34;97054.97;;;3.46;100.00
55289;BME280;41154;45.394;5.734;2023-04-07T01:07:26;97060.06;;;3.34;100.00
55289;BME280;41154;45.394;5.734;2023-04-07T01:10:04;97053.94;;;3.33;100.00
55289;BME280;41154;45.394;5.734;2023-04-07T01:12:55;97046.19;;;3.12;100.00
55289;BME280;41154;45.394;5.734;2023-04-07T01:15:26;97041.47;;;3.20;100.00
55289;BME280;41154;45.394;5.734;2023-04-07T01:18:09;97043.09;;;3.08;100.00
55289;BME280;41154;45.394;5.734;2023-04-07T01:20:37;97051.22;;;2.93;100.00
55289;BME280;41154;45.394;5.734;2023-04-07T01:23:06;97044.28;;;2.85;100.00
55289;BME280;41154;45.394;5.734;2023-04-07T01:25:53;97047.94;;;2.84;100.00
55289;BME280;41154;45.394;5.734;2023-04-07T01:29:06;97053.19;;;2.71;100.00
55289;BME280;41154;45.394;5.734;2023-04-07T01:31:38;97047.47;;;2.74;100.00
55289;BME280;41154;45.394;5.734;2023-04-07T01:34:06;97048.72;;;2.78;100.00
55289;BME280;41154;45.394;5.734;2023-04-07T01:36:34;97049.72;;;2.64;100.00
55289;BME280;41154;45.394;5.734;2023-04-07T01:39:00;97042.84;;;2.83;100.00
55289;BME280;41154;45.394;5.734;2023-04-07T01:41:27;97040.97;;;2.77;100.00
55289;BME280;41154;45.394;5.734;2023-04-07T01:43:53;97037.84;;;2.53;100.00
55289;BME280;41154;45.394;5.734;2023-04-07T01:46:20;97024.19;;;2.49;100.00
55289;BME280;41154;45.394;5.734;2023-04-07T01:48:47;97022.56;;;2.48;100.00
55289;BME280;41154;45.394;5.734;2023-04-07T01:51:13;97021.56;;;2.49;100.00
55289;BME280;41154;45.394;5.734;2023-04-07T01:53:45;97023.59;;;2.54;100.00
55289;BME280;41154;45.394;5.734;2023-04-07T01:56:11;97011.59;;;2.58;100.00
55289;BME280;41154;45.394;5.734;2023-04-07T01:58:37;97014.44;;;2.57;100.00
55289;BME280;41154;45.394;5.734;2023-04-07T02:01:06;97026.84;;;2.49;100.00
55289;BME280;41154;45.394;5.734;2023-04-07T02:03:42;97032.47;;;2.40;100.00
55289;BME280;41154;45.394;5.734;2023-04-07T02:06:12;97030.09;;;2.45;100.00
55289;BME280;41154;45.394;5.734;2023-04-07T02:08:59;97027.47;;;2.58;100.00
55289;BME280;41154;45.394;5.734;2023-04-07T02:11:28;97020.00;;;2.82;100.00
55289;BME280;41154;45.394;5.734;2023-04-07T02:14:01;97021.38;;;2.58;100.00
55289;BME280;41154;45.394;5.734;2023-04-07T02:16:34;97013.69;;;2.76;100.00
55289;BME280;41154;45.394;5.734;2023-04-07T02:19:01;97010.03;;;2.91;100.00
55289;BME280;41154;45.394;5.734;2023-04-07T02:21:28;96999.03;;;3.00;100.00
55289;BME280;41154;45.394;5.734;2023-04-07T02:23:55;96984.34;;;2.91;100.00
55289;BME280;41154;45.394;5.734;2023-04-07T02:26:21;96982.69;;;2.63;100.00
55289;BME280;41154;45.394;5.734;2023-04-07T02:28:47;96988.53;;;2.39;100.00
55289;BME280;41154;45.394;5.734;2023-04-07T02:31:16;96981.19;;;1.99;100.00
55289;BME280;41154;45.394;5.734;2023-04-07T02:33:41;96970.19;;;1.95;100.00
55289;BME280;41154;45.394;5.734;2023-04-07T02:36:07;96968.66;;;2.14;100.00
55289;BME280;41154;45.394;5.734;2023-04-07T02:38:33;96967.47;;;2.17;100.00
55289;BME280;41154;45.394;5.734;2023-04-07T02:40:59;96967.38;;;1.97;100.00
55289;BME280;41154;45.394;5.734;2023-04-07T02:43:27;96956.97;;;1.95;100.00
55289;BME280;41154;45.394;5.734;2023-04-07T02:45:53;96946.19;;;1.97;100.00
55289;BME280;41154;45.394;5.734;2023-04-07T02:48:19;96946.72;;;1.79;100.00
55289;BME280;41154;45.394;5.734;2023-04-07T02:50:45;96951.84;;;1.87;100.00
55289;BME280;41154;45.394;5.734;2023-04-07T02:53:11;96950.19;;;1.79;100.00
55289;BME280;41154;45.394;5.734;2023-04-07T02:55:36;96960.00;;;1.92;100.00
55289;BME280;41154;45.394;5.734;2023-04-07T02:58:02;96965.47;;;1.84;100.00
55289;BME280;41154;45.394;5.734;2023-04-07T03:00:41;96967.84;;;2.07;100.00
55289;BME280;41154;45.394;5.734;2023-04-07T03:03:14;96957.28;;;2.14;100.00
55289;BME280;41154;45.394;5.734;2023-04-07T03:05:47;96943.78;;;2.02;100.00
55289;BME280;41154;45.394;5.734;2023-04-07T03:08:14;96943.63;;;2.17;100.00
55289;BME280;41154;45.394;5.734;2023-04-07T03:10:39;96934.66;;;2.11;100.00
55289;BME280;41154;45.394;5.734;2023-04-07T03:13:07;96933.97;;;1.96;100.00
55289;BME280;41154;45.394;5.734;2023-04-07T03:15:33;96928.28;;;1.99;100.00
55289;BME280;41154;45.394;5.734;2023-04-07T03:17:59;96925.66;;;1.99;100.00
55289;BME280;41154;45.394;5.734;2023-04-07T03:20:27;96925.66;;;1.99;100.00
55289;BME280;41154;45.394;5.734;2023-04-07T03:22:53;96934.03;;;2.09;100.00
55289;BME280;41154;45.394;5.734;2023-04-07T03:25:24;96936.56;;;2.31;100.00
55289;BME280;41154;45.394;5.734;2023-04-07T03:27:52;96940.53;;;2.00;100.00
55289;BME280;41154;45.394;5.734;2023-04-07T03:30:18;96938.34;;;1.75;100.00
55289;BME280;41154;45.394;5.734;2023-04-07T03:32:45;96933.38;;;2.01;100.00
55289;BME280;41154;45.394;5.734;2023-04-07T03:35:10;96932.78;;;2.05;100.00
55289;BME280;41154;45.394;5.734;2023-04-07T03:37:36;96930.03;;;1.78;100.00
55289;BME280;41154;45.394;5.734;2023-04-07T03:40:05;96919.63;;;1.70;100.00
55289;BME280;41154;45.394;5.734;2023-04-07T03:42:34;96914.00;;;1.87;100.00
55289;BME280;41154;45.394;5.734;2023-04-07T03:45:03;96904.47;;;1.99;100.00
55289;BME280;41154;45.394;5.734;2023-04-07T03:47:31;96907.38;;;2.11;100.00
55289;BME280;41154;45.394;5.734;2023-04-07T03:50:00;96912.00;;;1.89;100.00
55289;BME280;41154;45.394;5.734;2023-04-07T03:52:27;96905.31;;;2.00;100.00
55289;BME280;41154;45.394;5.734;2023-04-07T03:55:02;96907.00;;;2.21;100.00
55289;BME280;41154;45.394;5.734;2023-04-07T03:57:30;96909.63;;;2.07;100.00
55289;BME280;41154;45.394;5.734;2023-04-07T03:59:56;96914.53;;;2.10;100.00
55289;BME280;41154;45.394;5.734;2023-04-07T04:02:22;96908.84;;;2.27;100.00
55289;BME280;41154;45.394;5.734;2023-04-07T04:04:51;96897.47;;;2.40;100.00
55289;BME280;41154;45.394;5.734;2023-04-07T04:07:17;96903.16;;;2.30;100.00
55289;BME280;41154;45.394;5.734;2023-04-07T04:09:47;96903.97;;;2.24;100.00
55289;BME280;41154;45.394;5.734;2023-04-07T04:12:13;96908.66;;;2.35;100.00
55289;BME280;41154;45.394;5.734;2023-04-07T04:14:48;96911.34;;;2.55;100.00
55289;BME280;41154;45.394;5.734;2023-04-07T04:17:15;96901.41;;;2.57;100.00
55289;BME280;41154;45.394;5.734;2023-04-07T04:19:44;96906.69;;;2.64;100.00
55289;BME280;41154;45.394;5.734;2023-04-07T04:22:21;96911.78;;;2.72;100.00
55289;BME280;41154;45.394;5.734;2023-04-07T04:24:53;96903.66;;;2.87;100.00
55289;BME280;41154;45.394;5.734;2023-04-07T04:27:20;96909.78;;;2.87;100.00
55289;BME280;41154;45.394;5.734;2023-04-07T04:29:51;96914.88;;;2.82;100.00
55289;BME280;41154;45.394;5.734;2023-04-07T04:32:26;96918.09;;;2.71;100.00
55289;BME280;41154;45.394;5.734;2023-04-07T04:34:53;96916.91;;;2.87;100.00
55289;BME280;41154;45.394;5.734;2023-04-07T04:37:19;96910.59;;;2.81;100.00
55289;BME280;41154;45.394;5.734;2023-04-07T04:39:45;96908.53;;;2.70;100.00
55289;BME280;41154;45.394;5.734;2023-04-07T04:42:14;96907.94;;;3.01;100.00
55289;BME280;41154;45.394;5.734;2023-04-07T04:44:42;96908.16;;;3.13;100.00
55289;BME280;41154;45.394;5.734;2023-04-07T04:47:08;96906.94;;;2.82;100.00
55289;BME280;41154;45.394;5.734;2023-04-07T04:49:35;96906.09;;;2.75;100.00
55289;BME280;41154;45.394;5.734;2023-04-07T04:52:05;96907.94;;;3.01;100.00
55289;BME280;41154;45.394;5.734;2023-04-07T04:54:37;96900.16;;;3.40;100.00
55289;BME280;41154;45.394;5.734;2023-04-07T04:57:04;96906.47;;;3.46;100.00
55289;BME280;41154;45.394;5.734;2023-04-07T04:59:30;96910.56;;;3.48;100.00
55289;BME280;41154;45.394;5.734;2023-04-07T05:02:00;96905.66;;;3.45;100.00
55289;BME280;41154;45.394;5.734;2023-04-07T05:04:26;96903.25;;;3.17;100.00
55289;BME280;41154;45.394;5.734;2023-04-07T05:07:07;96913.44;;;3.00;100.00
55289;BME280;41154;45.394;5.734;2023-04-07T05:09:33;96906.28;;;3.27;100.00
55289;BME280;41154;45.394;5.734;2023-04-07T05:11:58;96903.22;;;3.30;100.00
55289;BME280;41154;45.394;5.734;2023-04-07T05:14:27;96909.75;;;3.48;100.00
55289;BME280;41154;45.394;5.734;2023-04-07T05:16:59;96908.53;;;3.37;100.00
55289;BME280;41154;45.394;5.734;2023-04-07T05:19:27;96913.44;;;3.20;100.00
55289;BME280;41154;45.394;5.734;2023-04-07T05:21:58;96913.44;;;3.27;100.00
55289;BME280;41154;45.394;5.734;2023-04-07T05:24:28;96906.09;;;3.35;100.00
55289;BME280;41154;45.394;5.734;2023-04-07T05:26:58;96907.72;;;3.43;100.00
55289;BME280;41154;45.394;5.734;2023-04-07T05:29:24;96899.97;;;3.41;100.00
55289;BME280;41154;45.394;5.734;2023-04-07T05:31:51;96905.66;;;3.45;100.00
55289;BME280;41154;45.394;5.734;2023-04-07T05:34:19;96908.44;;;3.77;100.00
55289;BME280;41154;45.394;5.734;2023-04-07T05:40:00;96913.72;;;3.90;100.00
55289;BME280;41154;45.394;5.734;2023-04-07T05:42:26;96919.84;;;3.84;100.00
55289;BME280;41154;45.394;5.734;2023-04-07T05:44:55;96926.41;;;3.75;100.00
55289;BME280;41154;45.394;5.734;2023-04-07T05:47:23;96922.16;;;3.47;100.00
55289;BME280;41154;45.394;5.734;2023-04-07T05:49:49;96926.00;;;3.71;100.00
55289;BME280;41154;45.394;5.734;2023-04-07T05:52:15;96925.19;;;3.71;100.00
55289;BME280;41154;45.394;5.734;2023-04-07T05:54:46;96927.69;;;3.39;100.00
55289;BME280;41154;45.394;5.734;2023-04-07T05:57:13;96930.56;;;3.31;100.00
55289;BME280;41154;45.394;5.734;2023-04-07T05:59:43;96919.53;;;3.27;100.00
55289;BME280;41154;45.394;5.734;2023-04-07T06:02:10;96923.41;;;3.38;100.00
55289;BME280;41154;45.394;5.734;2023-04-07T06:04:38;96930.34;;;3.52;100.00
55289;BME280;41154;45.394;5.734;2023-04-07T06:07:05;96922.53;;;3.71;100.00
55289;BME280;41154;45.394;5.734;2023-04-07T06:09:31;96927.00;;;3.84;100.00
55289;BME280;41154;45.394;5.734;2023-04-07T06:11:57;96927.16;;;4.02;100.00
55289;BME280;41154;45.394;5.734;2023-04-07T06:14:24;96937.59;;;3.90;100.00
55289;BME280;41154;45.394;5.734;2023-04-07T06:16:50;96930.84;;;3.94;100.00
55289;BME280;41154;45.394;5.734;2023-04-07T06:19:16;96929.63;;;3.90;100.00
55289;BME280;41154;45.394;5.734;2023-04-07T06:21:42;96939.97;;;4.12;100.00
55289;BME280;41154;45.394;5.734;2023-04-07T06:24:08;96944.94;;;4.40;100.00
55289;BME280;41154;45.394;5.734;2023-04-07T06:26:34;96948.41;;;4.47;100.00
55289;BME280;41154;45.394;5.734;2023-04-07T06:29:00;96956.78;;;4.44;100.00
55289;BME280;41154;45.394;5.734;2023-04-07T06:31:27;96958.84;;;4.36;100.00
55289;BME280;41154;45.394;5.734;2023-04-07T06:33:55;96968.38;;;3.98;100.00
55289;BME280;41154;45.394;5.734;2023-04-07T06:36:22;96964.31;;;4.02;100.00
55289;BME280;41154;45.394;5.734;2023-04-07T06:38:49;96962.53;;;4.41;100.00
55289;BME280;41154;45.394;5.734;2023-04-07T06:41:15;96962.84;;;4.06;100.00
55289;BME280;41154;45.394;5.734;2023-04-07T06:43:46;96962.22;;;4.11;100.00
55289;BME280;41154;45.394;5.734;2023-04-07T06:46:14;96970.34;;;4.23;100.00
55289;BME280;41154;45.394;5.734;2023-04-07T06:48:40;96977.41;;;4.49;100.00
55289;BME280;41154;45.394;5.734;2023-04-07T06:51:06;96990.13;;;4.27;100.00
55289;BME280;41154;45.394;5.734;2023-04-07T06:53:32;97001.28;;;3.90;100.00
55289;BME280;41154;45.394;5.734;2023-04-07T06:56:07;97003.94;;;3.84;100.00
55289;BME280;41154;45.394;5.734;2023-04-07T06:58:49;97024.34;;;3.96;100.00
55289;BME280;41154;45.394;5.734;2023-04-07T07:01:23;97034.31;;;4.14;100.00
55289;BME280;41154;45.394;5.734;2023-04-07T07:04:03;97040.41;;;4.22;100.00
55289;BME280;41154;45.394;5.734;2023-04-07T07:06:33;97033.25;;;4.22;100.00
55289;BME280;41154;45.394;5.734;2023-04-07T07:09:33;97036.53;;;4.24;100.00
55289;BME280;41154;45.394;5.734;2023-04-07T07:11:59;97043.69;;;4.17;100.00
55289;BME280;41154;45.394;5.734;2023-04-07T07:15:00;97038.16;;;4.19;100.00
55289;BME280;41154;45.394;5.734;2023-04-07T07:17:26;97043.84;;;4.22;100.00
55289;BME280;41154;45.394;5.734;2023-04-07T07:19:52;97052.28;;;4.19;100.00
55289;BME280;41154;45.394;5.734;2023-04-07T07:22:17;97044.09;;;4.21;100.00
55289;BME280;41154;45.394;5.734;2023-04-07T07:24:43;97059.03;;;4.08;100.00
55289;BME280;41154;45.394;5.734;2023-04-07T07:27:09;97061.47;;;4.10;100.00
55289;BME280;41154;45.394;5.734;2023-04-07T07:29:35;97068.75;;;4.41;100.00
55289;BME280;41154;45.394;5.734;2023-04-07T07:32:00;97074.44;;;4.58;100.00
55289;BME280;41154;45.394;5.734;2023-04-07T07:34:26;97070.13;;;4.57;100.00
55289;BME280;41154;45.394;5.734;2023-04-07T07:36:52;97071.97;;;4.50;100.00
55289;BME280;41154;45.394;5.734;2023-04-07T07:39:17;97071.91;;;4.70;100.00
55289;BME280;41154;45.394;5.734;2023-04-07T07:48:43;97052.50;;;4.70;100.00
55289;BME280;41154;45.394;5.734;2023-04-07T07:51:10;97050.31;;;4.53;100.00
55289;BME280;41154;45.394;5.734;2023-04-07T07:53:36;97052.88;;;4.73;100.00
55289;BME280;41154;45.394;5.734;2023-04-07T07:56:02;97050.94;;;4.55;100.00
55289;BME280;41154;45.394;5.734;2023-04-07T07:58:28;97050.09;;;4.55;100.00
55289;BME280;41154;45.394;5.734;2023-04-07T08:00:53;97061.16;;;4.52;100.00
55289;BME280;41154;45.394;5.734;2023-04-07T08:03:19;97064.56;;;4.65;100.00
55289;BME280;41154;45.394;5.734;2023-04-07T08:05:47;97066.59;;;4.70;100.00
55289;BME280;41154;45.394;5.734;2023-04-07T08:08:13;97064.44;;;4.92;100.00
55289;BME280;41154;45.394;5.734;2023-04-07T08:10:39;97071.34;;;5.07;100.00
55289;BME280;41154;45.394;5.734;2023-04-07T08:13:05;97071.31;;;5.13;100.00
55289;BME280;41154;45.394;5.734;2023-04-07T08:15:31;97084.66;;;5.38;100.00
55289;BME280;41154;45.394;5.734;2023-04-07T08:17:57;97089.22;;;5.25;100.00
55289;BME280;41154;45.394;5.734;2023-04-07T08:20:25;97098.09;;;5.44;100.00
55289;BME280;41154;45.394;5.734;2023-04-07T08:22:51;97095.44;;;5.50;100.00
55289;BME280;41154;45.394;5.734;2023-04-07T08:25:17;97092.56;;;5.52;100.00
55289;BME280;41154;45.394;5.734;2023-04-07T08:27:44;97096.63;;;5.22;100.00
55289;BME280;41154;45.394;5.734;2023-04-07T08:30:09;97088.91;;;5.14;100.00
55289;BME280;41154;45.394;5.734;2023-04-07T08:32:36;97092.53;;;5.20;100.00
55289;BME280;41154;45.394;5.734;2023-04-07T08:35:02;97087.56;;;5.30;100.00
55289;BME280;41154;45.394;5.734;2023-04-07T08:37:28;97092.00;;;5.43;100.00
55289;BME280;41154;45.394;5.734;2023-04-07T08:39:53;97088.69;;;5.48;100.00
55289;BME280;41154;45.394;5.734;2023-04-07T08:42:22;97091.91;;;5.56;100.00
55289;BME280;41154;45.394;5.734;2023-04-07T08:44:53;97092.78;;;5.75;100.00
55289;BME280;41154;45.394;5.734;2023-04-07T08:47:21;97096.09;;;5.71;100.00
55289;BME280;41154;45.394;5.734;2023-04-07T08:49:51;97088.59;;;5.61;100.00
55289;BME280;41154;45.394;5.734;2023-04-07T08:52:23;97089.25;;;5.82;100.00
55289;BME280;41154;45.394;5.734;2023-04-07T08:54:50;97102.03;;;5.98;100.00
55289;BME280;41154;45.394;5.734;2023-04-07T08:57:17;97098.16;;;5.94;100.00
55289;BME280;41154;45.394;5.734;2023-04-07T08:59:44;97089.25;;;5.82;100.00
55289;BME280;41154;45.394;5.734;2023-04-07T09:02:13;97103.00;;;5.79;100.00
55289;BME280;41154;45.394;5.734;2023-04-07T09:07:49;97104.44;;;5.74;100.00
55289;BME280;41154;45.394;5.734;2023-04-07T09:10:15;97107.97;;;6.00;100.00
55289;BME280;41154;45.394;5.734;2023-04-07T09:12:41;97112.94;;;5.90;100.00
55289;BME280;41154;45.394;5.734;2023-04-07T09:15:07;97109.91;;;5.86;100.00
55289;BME280;41154;45.394;5.734;2023-04-07T09:17:33;97109.19;;;6.23;100.00
55289;BME280;41154;45.394;5.734;2023-04-07T09:20:00;97109.31;;;6.53;100.00
55289;BME280;41154;45.394;5.734;2023-04-07T09:22:37;97123.03;;;6.75;100.00
55289;BME280;41154;45.394;5.734;2023-04-07T09:25:29;97116.78;;;6.63;100.00
55289;BME280;41154;45.394;5.734;2023-04-07T09:31:48;97124.56;;;6.83;100.00
55289;BME280;41154;45.394;5.734;2023-04-07T09:34:26;97127.00;;;7.03;100.00
55289;BME280;41154;45.394;5.734;2023-04-07T09:36:53;97117.94;;;7.23;100.00
55289;BME280;41154;45.394;5.734;2023-04-07T09:39:19;97125.94;;;7.04;100.00
55289;BME280;41154;45.394;5.734;2023-04-07T09:41:45;97133.09;;;7.41;100.00
55289;BME280;41154;45.394;5.734;2023-04-07T09:44:11;97133.13;;;8.06;100.00
55289;BME280;41154;45.394;5.734;2023-04-07T09:46:50;97129.25;;;7.79;100.00
55289;BME280;41154;45.394;5.734;2023-04-07T09:49:16;97124.22;;;8.24;100.00
55289;BME280;41154;45.394;5.734;2023-04-07T09:51:55;97128.03;;;8.28;100.00
55289;BME280;41154;45.394;5.734;2023-04-07T09:54:40;97119.94;;;8.47;100.00
55289;BME280;41154;45.394;5.734;2023-04-07T09:57:08;97117.25;;;8.47;100.00
55289;BME280;41154;45.394;5.734;2023-04-07T09:59:38;97126.19;;;8.64;100.00
55289;BME280;41154;45.394;5.734;2023-04-07T10:02:07;97119.34;;;9.21;100.00
55289;BME280;41154;45.394;5.734;2023-04-07T10:04:33;97114.06;;;9.55;100.00
55289;BME280;41154;45.394;5.734;2023-04-07T10:06:59;97113.38;;;9.31;100.00
55289;BME280;41154;45.394;5.734;2023-04-07T10:09:28;97107.75;;;9.04;100.00
55289;BME280;41154;45.394;5.734;2023-04-07T10:11:56;97100.91;;;9.37;100.00
55289;BME280;41154;45.394;5.734;2023-04-07T10:14:30;97095.72;;;9.18;100.00
55289;BME280;41154;45.394;5.734;2023-04-07T10:16:57;97097.06;;;10.29;100.00
55289;BME280;41154;45.394;5.734;2023-04-07T10:19:24;97093.00;;;10.26;100.00
55289;BME280;41154;45.394;5.734;2023-04-07T10:21:53;97091.88;;;10.05;100.00
55289;BME280;41154;45.394;5.734;2023-04-07T10:24:29;97082.63;;;10.69;100.00
55289;BME280;41154;45.394;5.734;2023-04-07T10:27:06;97081.78;;;11.35;100.00
55289;BME280;41154;45.394;5.734;2023-04-07T10:29:39;97074.84;;;11.39;100.00
55289;BME280;41154;45.394;5.734;2023-04-07T10:32:06;97066.59;;;10.74;100.00
55289;BME280;41154;45.394;5.734;2023-04-07T10:37:18;97062.75;;;11.14;100.00
55289;BME280;41154;45.394;5.734;2023-04-07T10:39:50;97053.03;;;10.64;100.00
55289;BME280;41154;45.394;5.734;2023-04-07T10:45:04;97042.97;;;12.13;100.00
55289;BME280;41154;45.394;5.734;2023-04-07T10:47:30;97037.88;;;12.21;100.00
55289;BME280;41154;45.394;5.734;2023-04-07T10:50:15;97035.78;;;12.76;100.00
55289;BME280;41154;45.394;5.734;2023-04-07T10:52:42;97017.50;;;12.89;100.00
55289;BME280;41154;45.394;5.734;2023-04-07T10:55:27;97016.78;;;12.46;100.00
55289;BME280;41154;45.394;5.734;2023-04-07T10:58:17;97015.03;;;12.72;100.00
55289;BME280;41154;45.394;5.734;2023-04-07T11:03:32;97006.00;;;12.40;98.61
55289;BME280;41154;45.394;5.734;2023-04-07T11:06:06;97003.72;;;12.17;95.61
55289;BME280;41154;45.394;5.734;2023-04-07T11:08:37;96995.84;;;12.05;92.46
55289;BME280;41154;45.394;5.734;2023-04-07T11:11:04;96990.06;;;12.23;100.00
55289;BME280;41154;45.394;5.734;2023-04-07T11:16:11;96989.22;;;12.18;86.48
55289;BME280;41154;45.394;5.734;2023-04-07T11:18:39;96974.59;;;12.51;97.38
55289;BME280;41154;45.394;5.734;2023-04-07T11:21:06;96977.31;;;12.67;87.71
55289;BME280;41154;45.394;5.734;2023-04-07T11:23:40;96968.75;;;12.80;87.31
55289;BME280;41154;45.394;5.734;2023-04-07T11:26:07;96967.84;;;12.44;82.27
55289;BME280;41154;45.394;5.734;2023-04-07T11:28:34;96970.59;;;12.59;87.46
55289;BME280;41154;45.394;5.734;2023-04-07T11:31:02;96974.59;;;12.56;79.38
55289;BME280;41154;45.394;5.734;2023-04-07T11:33:30;96958.16;;;12.48;81.61
55289;BME280;41154;45.394;5.734;2023-04-07T11:36:00;96961.06;;;12.36;83.17
55289;BME280;41154;45.394;5.734;2023-04-07T11:38:34;96945.53;;;12.58;83.50
55289;BME280;41154;45.394;5.734;2023-04-07T11:41:12;96942.03;;;12.53;73.70
55289;BME280;41154;45.394;5.734;2023-04-07T11:43:38;96945.72;;;12.36;73.79
55289;BME280;41154;45.394;5.734;2023-04-07T11:46:17;96944.34;;;12.29;78.67
55289;BME280;41154;45.394;5.734;2023-04-07T11:48:44;96940.25;;;12.16;78.14
55289;BME280;41154;45.394;5.734;2023-04-07T11:51:20;96941.06;;;11.74;75.31
55289;BME280;41154;45.394;5.734;2023-04-07T11:53:56;96945.84;;;12.04;78.85
55289;BME280;41154;45.394;5.734;2023-04-07T11:56:22;96938.13;;;12.97;72.92
55289;BME280;41154;45.394;5.734;2023-04-07T11:58:49;96928.75;;;13.45;69.79
55289;BME280;41154;45.394;5.734;2023-04-07T12:01:15;96921.13;;;13.83;70.22
55289;BME280;41154;45.394;5.734;2023-04-07T12:04:00;96915.66;;;14.19;68.87
55289;BME280;41154;45.394;5.734;2023-04-07T12:06:35;96919.44;;;14.18;63.67
55289;BME280;41154;45.394;5.734;2023-04-07T12:09:04;96909.16;;;14.26;65.46
55289;BME280;41154;45.394;5.734;2023-04-07T12:11:30;96915.16;;;14.02;71.97
55289;BME280;41154;45.394;5.734;2023-04-07T12:13:57;96911.19;;;13.27;74.99
55289;BME280;41154;45.394;5.734;2023-04-07T12:16:23;96913.06;;;12.91;77.78
55289;BME280;41154;45.394;5.734;2023-04-07T12:18:49;96915.44;;;12.82;76.65
55289;BME280;41154;45.394;5.734;2023-04-07T12:21:18;96927.59;;;11.68;74.41
55289;BME280;41154;45.394;5.734;2023-04-07T12:23:45;96935.97;;;11.07;79.28
55289;BME280;41154;45.394;5.734;2023-04-07T12:26:12;96947.31;;;10.87;86.56
55289;BME280;41154;45.394;5.734;2023-04-07T12:28:38;96956.72;;;10.63;95.50
55289;BME280;41154;45.394;5.734;2023-04-07T12:31:04;96973.22;;;10.32;100.00
55289;BME280;41154;45.394;5.734;2023-04-07T12:33:30;97013.69;;;9.41;100.00
55289;BME280;41154;45.394;5.734;2023-04-07T12:35:56;97027.31;;;7.82;100.00
55289;BME280;41154;45.394;5.734;2023-04-07T12:38:22;97037.81;;;7.41;100.00
55289;BME280;41154;45.394;5.734;2023-04-07T12:40:48;97049.25;;;7.18;100.00
55289;BME280;41154;45.394;5.734;2023-04-07T12:43:14;97049.69;;;6.84;100.00
55289;BME280;41154;45.394;5.734;2023-04-07T12:45:40;97068.63;;;6.95;100.00
55289;BME280;41154;45.394;5.734;2023-04-07T12:48:06;97062.06;;;7.28;100.00
55289;BME280;41154;45.394;5.734;2023-04-07T12:50:34;97078.75;;;7.23;100.00
55289;BME280;41154;45.394;5.734;2023-04-07T12:52:59;97073.44;;;7.05;100.00
55289;BME280;41154;45.394;5.734;2023-04-07T12:55:28;97072.91;;;7.14;100.00
55289;BME280;41154;45.394;5.734;2023-04-07T12:57:55;97071.59;;;7.05;100.00
55289;BME280;41154;45.394;5.734;2023-04-07T13:00:21;97060.22;;;7.40;100.00
55289;BME280;41154;45.394;5.734;2023-04-07T13:02:46;97064.91;;;7.56;100.00
55289;BME280;41154;45.394;5.734;2023-04-07T13:05:12;97064.13;;;7.91;100.00
55289;BME280;41154;45.394;5.734;2023-04-07T13:07:38;97076.44;;;7.92;100.00
55289;BME280;41154;45.394;5.734;2023-04-07T13:10:04;97078.75;;;7.77;100.00
55289;BME280;41154;45.394;5.734;2023-04-07T13:12:32;97067.16;;;8.07;100.00
55289;BME280;41154;45.394;5.734;2023-04-07T13:14:58;97075.34;;;7.58;100.00
55289;BME280;41154;45.394;5.734;2023-04-07T13:17:24;97073.78;;;7.81;100.00
55289;BME280;41154;45.394;5.734;2023-04-07T13:19:49;97079.34;;;7.79;100.00
55289;BME280;41154;45.394;5.734;2023-04-07T13:22:15;97072.56;;;7.65;100.00
55289;BME280;41154;45.394;5.734;2023-04-07T13:24:42;97075.63;;;7.80;100.00
55289;BME280;41154;45.394;5.734;2023-04-07T13:27:08;97074.13;;;7.84;100.00
55289;BME280;41154;45.394;5.734;2023-04-07T13:29:34;97076.44;;;7.92;100.00
55289;BME280;41154;45.394;5.734;2023-04-07T13:32:06;97052.88;;;8.37;100.00
55289;BME280;41154;45.394;5.734;2023-04-07T13:34:33;97042.78;;;8.15;100.00
55289;BME280;41154;45.394;5.734;2023-04-07T13:37:03;97025.22;;;8.19;100.00
55289;BME280;41154;45.394;5.734;2023-04-07T13:39:30;97024.28;;;8.37;100.00